Aérodrome :
LOGIN :

S'inscrire | Disclaimer

   EN    FR    IT 

 










Légende :    VFR   VFR Marginal   IFR   IFR Intensif   IFR Très Intensif
Visi : 
Plafond : 
>= 8 km
>= 3000ft
5 à 8 km
1000 à 3000 ft
1500m à 5 km
500 à 1000 ft
800 à 1500m
200 à 500 ft
< 800m
< 200 ft
Symboles :   Orages  Brouillard  Fortes neiges  Fortes précipitations  Vent > 20 kt
SIGMETs :   Divers  Orages  Givrage  Turbulence  Onde Orograph.  Cendres Volcan.







- Altitude de l'aérodrome : 157 ft
- Code IATA : LIL
- Voir les cartes d'approche


LFQQ - Lille Lesquin

DERNIER METAR :
  • 281130Z AUTO 23011KT 9999 SCT014 BKN021 OVC028 18/15 Q0997 NOSIG

METARs EXPIRÉS :
  • 281100Z AUTO 23011KT 9999 OVC016 18/15 Q0997 NOSIG
  • 281030Z AUTO 23010KT 9999 BKN013 OVC019 18/15 Q0997 BECMG BKN020
  • 281000Z AUTO 23010KT 9999 OVC013 18/15 Q0997 BECMG BKN020
  • 280930Z AUTO 23010KT 9999 OVC013 18/15 Q0997 BECMG BKN020
  • 280900Z AUTO 23013KT 9999 OVC014 17/15 Q0997 BECMG BKN020

TAF TAF LFQQ
Valide du 28 à 12h jusqu'au 29 à 18h UTC


281100Z 2812/2918 24010KT 9999 BKN020
PROB30
TEMPO 2815/2818 3000 SHRA BKN030CB
BECMG 2822/2824 OVC013
TEMPO 2900/2906 3000 SHRA BKN007 BKN015TCU
BECMG 2910/2912 BKN020
TEMPO 2912/2918 3000 SHRA BKN020TCU
ATIS : +33 3 20 16 19 54
Pas de NOTAMs connus pour ce terrain.



MET'MAP, la Météo Aéronautique d'un coup d'oeil ! - Copyright ORBIFLY Décembre 2007 - Disclaimer

ORBIFLY MET'MAP TEAM :

Programmation & Développement : Alexandra Zaïnal
Conception & Développement : Baudouin d'Aumeries
Co-Programmation & Développement : Marc-Olivier Méhu
Soutien technique & logistique : Manuel Goepfert

Contact : metmap@orbifly.com




SOURCES & CREDITS :

   NOAA